Time;durP1;ratioP1;P1;durP2;ratioP2;P2;SDS_P1;SDS_P2;PMS_P1;PMS_P2;Temp;Humidity;BMP_temperature;BMP_pressure;BME280_temperature;BME280_humidity;BME280_pressure;Samples;Min_cycle;Max_cycle;Signal;HPM_P1;HPM_P2
2024/02/26 00:01:50;;;;;;;98.70;92.85;;;9.60;99.90;;;;;;5075916;28;20036;-73
2024/02/26 00:04:16;;;;;;;95.72;89.97;;;9.60;99.90;;;;;;5073593;28;20379;-73
2024/02/26 00:06:42;;;;;;;91.75;86.07;;;9.70;99.90;;;;;;5074312;28;20485;-73
2024/02/26 00:09:09;;;;;;;102.70;96.68;;;9.70;99.90;;;;;;5074277;28;20040;-73
2024/02/26 00:11:38;;;;;;;95.28;89.85;;;9.60;99.90;;;;;;5072177;28;20124;-73
2024/02/26 00:14:04;;;;;;;93.18;87.60;;;9.60;99.90;;;;;;5071958;28;20056;-73
2024/02/26 00:16:30;;;;;;;101.05;95.03;;;9.60;99.90;;;;;;5073469;28;20481;-73
2024/02/26 00:18:56;;;;;;;96.10;90.63;;;9.70;99.90;;;;;;5091906;28;20394;-72
2024/02/26 00:21:22;;;;;;;105.55;99.47;;;9.70;99.90;;;;;;5083849;28;20039;-73
2024/02/26 00:23:53;;;;;;;101.32;95.28;;;9.70;99.90;;;;;;5072674;28;20047;-73
2024/02/26 00:26:19;;;;;;;119.23;111.97;;;9.70;99.90;;;;;;5073025;28;20035;-73
2024/02/26 00:28:45;;;;;;;132.40;124.20;;;9.70;99.90;;;;;;5072519;28;20279;-73
2024/02/26 00:31:11;;;;;;;107.75;101.28;;;9.70;99.90;;;;;;5072732;28;20398;-72
2024/02/26 00:33:38;;;;;;;103.45;97.63;;;9.70;99.90;;;;;;5071622;28;20045;-73
2024/02/26 00:36:04;;;;;;;88.95;83.78;;;9.70;99.90;;;;;;5072961;28;20032;-73
2024/02/26 00:38:30;;;;;;;99.53;93.90;;;9.70;99.90;;;;;;5073463;28;20040;-73
2024/02/26 00:40:57;;;;;;;105.47;99.45;;;9.70;99.90;;;;;;5058881;28;20043;-72
2024/02/26 00:43:23;;;;;;;97.03;91.35;;;9.70;99.90;;;;;;5071368;28;20032;-73
2024/02/26 00:45:49;;;;;;;108.55;102.28;;;9.80;99.90;;;;;;5077103;28;20490;-72
2024/02/26 00:48:15;;;;;;;106.72;100.47;;;9.70;99.90;;;;;;5073241;28;20043;-73
2024/02/26 00:50:42;;;;;;;117.65;110.50;;;9.70;99.90;;;;;;5072643;28;20036;-73
2024/02/26 00:53:08;;;;;;;103.25;96.55;;;9.70;99.90;;;;;;5075107;28;20036;-73
2024/02/26 00:55:34;;;;;;;93.78;88.05;;;9.60;99.90;;;;;;5081386;28;20041;-73
2024/02/26 00:58:00;;;;;;;79.53;74.63;;;9.60;99.90;;;;;;5072979;28;20039;-73
2024/02/26 01:00:26;;;;;;;87.70;81.90;;;9.60;99.90;;;;;;5072061;28;20395;-73
2024/02/26 01:02:52;;;;;;;94.47;88.25;;;9.60;99.90;;;;;;5072571;28;20036;-72
2024/02/26 01:05:19;;;;;;;85.22;79.97;;;9.60;99.90;;;;;;5072015;28;20379;-73
2024/02/26 01:07:45;;;;;;;88.88;82.90;;;9.60;99.90;;;;;;5072804;28;20032;-73
2024/02/26 01:10:11;;;;;;;73.75;69.15;;;9.70;99.90;;;;;;5071291;28;20379;-73
2024/02/26 01:12:37;;;;;;;76.47;71.40;;;9.70;99.90;;;;;;5062309;28;20044;-73
2024/02/26 01:15:03;;;;;;;84.88;79.40;;;9.50;99.90;;;;;;5072156;28;20052;-73
2024/02/26 01:17:30;;;;;;;84.38;78.55;;;9.60;99.90;;;;;;5061244;28;20032;-73
2024/02/26 01:19:56;;;;;;;91.30;85.07;;;9.70;99.90;;;;;;5079785;28;20483;-72
2024/02/26 01:22:22;;;;;;;96.88;90.32;;;9.70;99.90;;;;;;5072523;28;20032;-73
2024/02/26 01:24:48;;;;;;;90.22;84.65;;;9.70;99.90;;;;;;5076342;28;20033;-73
2024/02/26 01:27:15;;;;;;;102.30;95.65;;;9.70;99.90;;;;;;5071037;28;20025;-72
2024/02/26 01:29:41;;;;;;;86.05;80.55;;;9.70;99.90;;;;;;5071877;28;20051;-73
2024/02/26 01:32:08;;;;;;;98.45;91.90;;;9.80;99.90;;;;;;5069547;28;20032;-73
2024/02/26 01:34:34;;;;;;;98.13;91.95;;;9.80;99.90;;;;;;5071060;28;20605;-73
2024/02/26 01:37:00;;;;;;;101.35;94.65;;;9.90;99.90;;;;;;5072355;28;20033;-72
2024/02/26 01:39:28;;;;;;;102.88;96.53;;;9.90;99.90;;;;;;5071234;28;20044;-73
2024/02/26 01:41:54;;;;;;;126.68;119.18;;;9.90;99.90;;;;;;5071716;28;20045;-72
2024/02/26 01:44:21;;;;;;;109.45;102.43;;;9.80;99.90;;;;;;5072311;28;20495;-72
2024/02/26 01:46:47;;;;;;;98.97;92.50;;;9.60;99.90;;;;;;5071660;28;20036;-73
2024/02/26 01:49:13;;;;;;;97.93;91.05;;;9.50;99.90;;;;;;5072155;28;20035;-73
2024/02/26 01:51:40;;;;;;;103.55;97.20;;;9.60;99.90;;;;;;5070183;28;20032;-72
2024/02/26 01:54:06;;;;;;;118.90;111.60;;;9.60;99.90;;;;;;5053691;28;20048;-72
2024/02/26 01:56:32;;;;;;;108.95;101.22;;;9.60;99.90;;;;;;5070733;28;20021;-72
2024/02/26 01:58:58;;;;;;;127.55;119.60;;;9.60;99.90;;;;;;5070764;28;20036;-73
2024/02/26 02:01:28;;;;;;;107.30;100.43;;;9.60;99.90;;;;;;5070715;28;20029;-73
2024/02/26 02:03:55;;;;;;;108.22;101.32;;;9.60;99.90;;;;;;5072102;28;20029;-73
2024/02/26 02:06:21;;;;;;;110.10;102.82;;;9.60;99.90;;;;;;5073341;28;20031;-73
2024/02/26 02:08:47;;;;;;;122.90;115.20;;;9.60;99.90;;;;;;5073119;28;20537;-72
2024/02/26 02:11:14;;;;;;;125.43;117.68;;;9.70;99.90;;;;;;5069672;28;20028;-73
2024/02/26 02:13:41;;;;;;;105.75;98.80;;;9.60;99.90;;;;;;5053582;28;20044;-72
2024/02/26 02:16:07;;;;;;;107.80;100.88;;;9.60;99.90;;;;;;5073809;28;20394;-73
2024/02/26 02:18:33;;;;;;;136.30;127.93;;;9.50;99.90;;;;;;5078623;28;20024;-73
2024/02/26 02:21:03;;;;;;;136.45;128.25;;;9.50;99.90;;;;;;5071311;28;20029;-73
2024/02/26 02:23:29;;;;;;;125.13;116.95;;;9.50;99.90;;;;;;5071738;28;20025;-73
2024/02/26 02:25:56;;;;;;;113.75;106.97;;;9.60;99.90;;;;;;5070582;28;20459;-72
2024/02/26 02:28:22;;;;;;;127.22;119.30;;;9.60;99.90;;;;;;5053028;28;20068;-73
2024/02/26 02:30:48;;;;;;;127.43;119.82;;;9.60;99.90;;;;;;5069832;28;20044;-72
2024/02/26 02:33:15;;;;;;;115.03;107.90;;;9.60;99.90;;;;;;5070975;28;20040;-72
2024/02/26 02:35:41;;;;;;;113.15;106.25;;;9.50;99.90;;;;;;5070366;28;20039;-72
2024/02/26 02:38:07;;;;;;;120.53;113.00;;;9.50;99.90;;;;;;5070965;28;20470;-72
2024/02/26 02:40:33;;;;;;;113.30;105.78;;;9.50;99.90;;;;;;5070638;28;20032;-73
2024/02/26 02:43:01;;;;;;;141.23;132.52;;;9.50;99.90;;;;;;5091904;28;20485;-72
2024/02/26 02:45:28;;;;;;;143.40;134.77;;;9.50;99.90;;;;;;5088423;28;20024;-72
2024/02/26 02:47:54;;;;;;;154.70;145.43;;;9.50;99.90;;;;;;5071079;28;20390;-72
2024/02/26 02:50:20;;;;;;;126.47;118.20;;;9.40;99.90;;;;;;5071249;28;20051;-72
2024/02/26 02:52:47;;;;;;;142.95;134.07;;;9.40;99.90;;;;;;5073402;28;20037;-73
2024/02/26 02:55:14;;;;;;;135.25;127.25;;;9.40;99.90;;;;;;5090910;28;20382;-72
2024/02/26 02:57:41;;;;;;;141.80;132.65;;;9.40;99.90;;;;;;5071326;28;20048;-72
2024/02/26 03:00:11;;;;;;;133.65;124.90;;;9.40;99.90;;;;;;5068771;28;20052;-73
2024/02/26 03:02:37;;;;;;;156.15;146.00;;;9.40;99.90;;;;;;5051174;28;20048;-72
2024/02/26 03:05:06;;;;;;;144.35;135.18;;;9.40;99.90;;;;;;5067564;28;20032;-73
2024/02/26 03:07:32;;;;;;;125.90;118.35;;;9.40;99.90;;;;;;5065808;28;20509;-72
2024/02/26 03:09:58;;;;;;;139.05;130.00;;;9.40;99.90;;;;;;5069771;28;20040;-73
2024/02/26 03:12:24;;;;;;;139.07;130.23;;;9.40;99.90;;;;;;5069670;28;20045;-72
2024/02/26 03:14:51;;;;;;;121.47;114.22;;;9.50;99.90;;;;;;5069958;28;20059;-72
2024/02/26 03:17:17;;;;;;;121.70;114.30;;;9.50;99.90;;;;;;5072461;28;20035;-72
2024/02/26 03:19:46;;;;;;;122.57;115.13;;;9.50;99.90;;;;;;5093912;28;20040;-72
2024/02/26 03:22:15;;;;;;;124.72;117.30;;;9.50;99.90;;;;;;5076384;28;20056;-72
2024/02/26 03:24:41;;;;;;;154.52;144.95;;;9.60;99.90;;;;;;5072418;28;20036;-73
2024/02/26 03:27:09;;;;;;;129.18;120.90;;;9.50;99.90;;;;;;5072673;28;20040;-72
2024/02/26 03:29:35;;;;;;;121.55;113.93;;;9.40;99.90;;;;;;5073362;28;20039;-72
2024/02/26 03:32:02;;;;;;;112.05;105.13;;;9.40;99.90;;;;;;5072731;28;20033;-72
2024/02/26 03:34:28;;;;;;;115.15;107.55;;;9.50;99.90;;;;;;5073271;28;20059;-73
2024/02/26 03:36:54;;;;;;;118.03;110.18;;;9.50;99.90;;;;;;5066587;28;20032;-73
2024/02/26 03:39:20;;;;;;;135.23;126.97;;;9.40;99.90;;;;;;5074707;28;20033;-73
2024/02/26 03:41:46;;;;;;;127.60;119.60;;;9.40;99.90;;;;;;5076935;28;20040;-73
2024/02/26 03:44:12;;;;;;;118.80;111.43;;;9.40;99.90;;;;;;5074586;28;20032;-73
2024/02/26 03:46:38;;;;;;;121.82;114.32;;;9.30;99.90;;;;;;5073280;28;20517;-73
2024/02/26 03:49:04;;;;;;;112.28;104.10;;;9.30;99.90;;;;;;5074216;28;20024;-73
2024/02/26 03:51:31;;;;;;;97.93;91.78;;;9.30;99.90;;;;;;5076041;28;20462;-73
2024/02/26 03:53:58;;;;;;;120.38;112.68;;;9.40;99.90;;;;;;5073536;28;20398;-73
2024/02/26 03:56:25;;;;;;;111.57;104.43;;;9.40;99.90;;;;;;5073823;28;20037;-73
2024/02/26 03:58:51;;;;;;;134.70;125.65;;;9.40;99.90;;;;;;5074254;28;20029;-73
2024/02/26 04:01:17;;;;;;;135.88;127.30;;;9.40;99.90;;;;;;5073547;28;20041;-73
2024/02/26 04:03:43;;;;;;;133.60;125.35;;;9.40;99.90;;;;;;5072800;28;20033;-73
2024/02/26 04:06:20;;;;;;;112.80;105.70;;;9.40;99.90;;;;;;5065032;28;20048;-73
2024/02/26 04:08:47;;;;;;;79.35;74.32;;;9.50;99.90;;;;;;5074103;28;20051;-73
2024/02/26 04:11:13;;;;;;;108.13;101.57;;;9.50;99.90;;;;;;5074014;28;20044;-73
2024/02/26 04:13:39;;;;;;;121.47;113.93;;;9.50;99.90;;;;;;5073690;28;20047;-73
2024/02/26 04:16:06;;;;;;;126.43;118.75;;;9.50;99.90;;;;;;5073094;28;20063;-73
2024/02/26 04:18:32;;;;;;;152.65;142.80;;;9.30;99.90;;;;;;5073774;28;20490;-73
2024/02/26 04:20:59;;;;;;;96.88;90.85;;;9.40;99.90;;;;;;5073774;28;20020;-73
2024/02/26 04:23:25;;;;;;;100.30;93.93;;;9.40;99.90;;;;;;5074541;28;20032;-73
2024/02/26 04:25:53;;;;;;;113.15;105.95;;;9.50;99.90;;;;;;5060968;28;20033;-73
2024/02/26 04:28:20;;;;;;;99.22;92.70;;;9.60;99.90;;;;;;5071780;28;20390;-73
2024/02/26 04:30:48;;;;;;;95.72;89.57;;;9.60;99.90;;;;;;5070664;28;20032;-74
2024/02/26 04:33:14;;;;;;;90.28;84.40;;;9.60;99.90;;;;;;5065889;28;20475;-73
2024/02/26 04:35:40;;;;;;;92.47;86.30;;;9.60;99.90;;;;;;5072794;28;20033;-73
2024/02/26 04:38:06;;;;;;;101.97;95.47;;;9.60;99.90;;;;;;5083209;28;20043;-73
2024/02/26 04:40:32;;;;;;;108.00;100.90;;;9.70;99.90;;;;;;5061064;28;20035;-73
2024/02/26 04:42:58;;;;;;;116.63;109.53;;;9.60;99.90;;;;;;5091612;28;20032;-73
2024/02/26 04:45:24;;;;;;;114.30;105.07;;;9.60;99.90;;;;;;5090585;28;20031;-73
2024/02/26 04:47:50;;;;;;;103.70;96.47;;;9.60;99.90;;;;;;5073128;28;20463;-73
2024/02/26 04:50:16;;;;;;;117.13;110.28;;;9.60;99.90;;;;;;5073189;28;20029;-73
2024/02/26 04:52:43;;;;;;;114.32;107.15;;;9.60;99.90;;;;;;5089246;28;20039;-73
2024/02/26 04:55:09;;;;;;;112.32;104.80;;;9.60;99.90;;;;;;5074341;28;20036;-73
2024/02/26 04:57:35;;;;;;;117.00;109.63;;;9.70;99.90;;;;;;5054804;28;20489;-73
2024/02/26 05:00:01;;;;;;;102.45;95.68;;;9.70;99.90;;;;;;5073365;28;20024;-73
2024/02/26 05:02:27;;;;;;;90.45;84.28;;;9.80;99.90;;;;;;5072132;28;20035;-73
2024/02/26 05:04:54;;;;;;;101.18;95.00;;;9.70;99.90;;;;;;5073781;28;20051;-73
2024/02/26 05:07:20;;;;;;;87.78;82.32;;;9.80;99.90;;;;;;5072674;28;20420;-73
2024/02/26 05:09:49;;;;;;;138.30;128.98;;;9.80;99.90;;;;;;5072942;28;20418;-73
2024/02/26 05:12:15;;;;;;;89.90;83.35;;;9.80;99.90;;;;;;5066428;28;20048;-73
2024/02/26 05:14:41;;;;;;;1999.90;283.25;;;9.70;99.90;;;;;;5068218;28;20048;-73
2024/02/26 05:17:10;;;;;;;105.60;98.80;;;9.70;99.90;;;;;;5070250;28;20044;-74
2024/02/26 05:19:36;;;;;;;100.43;93.78;;;9.70;99.90;;;;;;5062452;28;20498;-73
2024/02/26 05:22:02;;;;;;;111.90;103.93;;;9.70;99.90;;;;;;5058158;28;20025;-73
2024/02/26 05:24:28;;;;;;;116.90;108.15;;;9.60;99.90;;;;;;5053079;28;20029;-74
2024/02/26 05:26:55;;;;;;;124.20;116.22;;;9.60;99.90;;;;;;5065930;28;20045;-73
2024/02/26 05:29:21;;;;;;;92.15;86.22;;;9.60;99.90;;;;;;5072468;28;20051;-73
2024/02/26 05:31:47;;;;;;;81.18;76.13;;;9.50;99.90;;;;;;5070562;28;20032;-73
2024/02/26 05:34:13;;;;;;;101.78;95.15;;;9.30;99.90;;;;;;5071674;28;20032;-73
2024/02/26 05:36:39;;;;;;;105.13;97.97;;;9.10;99.90;;;;;;5068399;28;20471;-73
2024/02/26 05:39:06;;;;;;;107.80;100.28;;;9.10;99.90;;;;;;5062483;28;20047;-73
2024/02/26 05:41:32;;;;;;;116.03;108.22;;;9.10;99.90;;;;;;5071523;28;20032;-73
2024/02/26 05:43:58;;;;;;;121.30;112.95;;;9.00;99.90;;;;;;5072739;28;20382;-73
2024/02/26 05:46:25;;;;;;;122.25;114.22;;;8.90;99.90;;;;;;5069917;28;20032;-73
2024/02/26 05:48:52;;;;;;;115.43;107.35;;;8.90;99.90;;;;;;5072643;28;20027;-73
2024/02/26 05:51:18;;;;;;;123.30;115.72;;;8.90;99.90;;;;;;5072432;28;20041;-73
2024/02/26 05:53:44;;;;;;;149.38;138.82;;;9.00;99.90;;;;;;5072498;28;20025;-73
2024/02/26 05:56:10;;;;;;;130.57;121.82;;;9.00;99.90;;;;;;5070230;28;20383;-73
2024/02/26 05:58:36;;;;;;;121.18;113.43;;;9.10;99.90;;;;;;5072368;28;20039;-73
2024/02/26 06:01:02;;;;;;;137.85;129.07;;;9.10;99.90;;;;;;5069916;28;20494;-73
2024/02/26 06:03:29;;;;;;;118.90;111.80;;;9.20;99.90;;;;;;5074987;28;20025;-73
2024/02/26 06:05:55;;;;;;;128.25;120.20;;;9.10;99.90;;;;;;5070518;28;20029;-73
2024/02/26 06:08:22;;;;;;;118.88;110.85;;;9.10;99.90;;;;;;5072170;28;20047;-73
2024/02/26 06:10:48;;;;;;;132.52;124.45;;;9.10;99.90;;;;;;5071522;28;20041;-73
2024/02/26 06:13:14;;;;;;;114.10;106.63;;;9.20;99.90;;;;;;5072145;28;20055;-73
2024/02/26 06:15:40;;;;;;;130.48;122.93;;;9.20;99.90;;;;;;5070493;28;20060;-73
2024/02/26 06:18:06;;;;;;;135.57;126.93;;;9.20;99.90;;;;;;5070183;28;20025;-73
2024/02/26 06:20:32;;;;;;;123.47;115.13;;;9.20;99.90;;;;;;5071432;28;20028;-73
2024/02/26 06:22:58;;;;;;;116.70;109.32;;;9.10;99.90;;;;;;5072179;28;20368;-73
2024/02/26 06:25:25;;;;;;;108.57;101.88;;;9.10;99.90;;;;;;5071780;28;20017;-73
2024/02/26 06:27:51;;;;;;;101.70;95.68;;;9.10;99.90;;;;;;5070407;28;20051;-73
2024/02/26 06:30:17;;;;;;;132.02;123.47;;;9.00;99.90;;;;;;5069090;28;20055;-73
2024/02/26 06:32:43;;;;;;;115.10;107.55;;;9.00;99.90;;;;;;5070618;28;20093;-73
2024/02/26 06:35:11;;;;;;;97.35;91.05;;;8.90;99.90;;;;;;5071266;28;20040;-73
2024/02/26 06:37:37;;;;;;;103.75;97.15;;;8.80;99.90;;;;;;5071376;28;20049;-73
2024/02/26 06:40:06;;;;;;;104.60;98.00;;;8.80;99.90;;;;;;5033533;28;20068;-73
2024/02/26 06:42:35;;;;;;;92.10;86.57;;;8.70;99.90;;;;;;5051939;28;20025;-73
2024/02/26 06:45:01;;;;;;;102.60;95.90;;;8.70;99.90;;;;;;5061032;28;20055;-73
2024/02/26 06:47:27;;;;;;;120.50;112.78;;;8.70;99.90;;;;;;5069708;28;20043;-73
2024/02/26 06:49:55;;;;;;;112.68;106.13;;;8.70;99.90;;;;;;5071734;28;20032;-72
2024/02/26 06:52:21;;;;;;;99.13;93.05;;;8.70;99.90;;;;;;5072515;28;20405;-73
2024/02/26 06:54:48;;;;;;;98.22;91.43;;;8.70;99.90;;;;;;5082475;28;20052;-73
2024/02/26 06:57:14;;;;;;;86.50;80.38;;;8.70;99.90;;;;;;5094982;28;20055;-73
2024/02/26 06:59:40;;;;;;;100.90;94.65;;;8.60;99.90;;;;;;5094636;28;20047;-73
2024/02/26 07:02:06;;;;;;;98.15;92.03;;;8.60;99.90;;;;;;5084408;28;20044;-72
2024/02/26 07:04:33;;;;;;;95.35;89.22;;;8.60;99.90;;;;;;5075767;28;20391;-72
2024/02/26 07:07:00;;;;;;;107.57;101.18;;;8.60;99.90;;;;;;5076250;28;20059;-72
2024/02/26 07:09:26;;;;;;;90.97;85.30;;;8.60;99.90;;;;;;5075653;28;20024;-73
2024/02/26 07:11:52;;;;;;;103.00;96.50;;;8.60;99.90;;;;;;5087877;28;20044;-73
2024/02/26 07:14:18;;;;;;;102.47;95.57;;;8.70;99.90;;;;;;5095635;28;20035;-72
2024/02/26 07:16:44;;;;;;;88.47;82.88;;;8.70;99.90;;;;;;5088233;28;20059;-68
2024/02/26 07:19:10;;;;;;;97.90;91.63;;;8.60;99.90;;;;;;5083554;28;20024;-73
2024/02/26 07:21:36;;;;;;;89.03;83.05;;;8.70;99.90;;;;;;5093700;28;20039;-73
2024/02/26 07:24:02;;;;;;;94.03;87.55;;;8.60;99.90;;;;;;5094804;28;20043;-73
2024/02/26 07:26:30;;;;;;;99.18;93.30;;;8.60;99.90;;;;;;5090603;28;20033;-73
2024/02/26 07:28:56;;;;;;;105.20;94.90;;;8.60;99.90;;;;;;5090204;28;20032;-73
2024/02/26 07:31:23;;;;;;;136.00;124.97;;;8.60;99.90;;;;;;5083799;28;20051;-73
2024/02/26 07:33:49;;;;;;;128.50;120.07;;;8.60;99.90;;;;;;5063497;28;20025;-73
2024/02/26 07:36:15;;;;;;;122.05;113.93;;;8.70;99.90;;;;;;5066658;28;20047;-73
2024/02/26 07:38:41;;;;;;;117.10;109.50;;;8.70;99.90;;;;;;5068982;28;20032;-73
2024/02/26 07:41:07;;;;;;;126.63;117.55;;;8.70;99.90;;;;;;5072655;28;20047;-73
2024/02/26 07:43:33;;;;;;;106.45;100.03;;;8.80;99.90;;;;;;5074795;28;20077;-73
2024/02/26 07:45:59;;;;;;;129.98;121.88;;;8.70;99.90;;;;;;5074128;28;20040;-73
2024/02/26 07:48:25;;;;;;;108.88;101.78;;;8.80;99.90;;;;;;5062913;28;20770;-73
2024/02/26 07:50:52;;;;;;;90.90;85.38;;;8.70;99.90;;;;;;5058442;28;20039;-72
2024/02/26 07:53:18;;;;;;;94.60;88.80;;;8.70;99.90;;;;;;5068002;28;20490;-73
2024/02/26 07:55:44;;;;;;;128.60;120.18;;;8.70;99.90;;;;;;5062633;28;20041;-73
2024/02/26 07:58:10;;;;;;;111.63;104.85;;;8.90;99.90;;;;;;5072867;28;20040;-73
2024/02/26 08:00:36;;;;;;;111.82;105.00;;;8.90;99.90;;;;;;5073682;28;20040;-73
2024/02/26 08:03:02;;;;;;;98.95;92.68;;;9.00;99.90;;;;;;5074214;28;20032;-72
2024/02/26 08:05:28;;;;;;;89.72;84.20;;;9.10;99.90;;;;;;5064055;28;20496;-73
2024/02/26 08:07:54;;;;;;;108.68;101.85;;;9.30;99.90;;;;;;5070182;28;20037;-73
2024/02/26 08:10:20;;;;;;;117.35;110.45;;;9.30;99.90;;;;;;5062959;28;20498;-73
2024/02/26 08:12:46;;;;;;;66.03;61.95;;;9.30;99.90;;;;;;5074220;28;20056;-70
2024/02/26 08:15:13;;;;;;;108.80;102.10;;;9.50;99.90;;;;;;5073570;28;20037;-70
2024/02/26 08:17:39;;;;;;;100.05;93.40;;;9.60;99.90;;;;;;5073815;28;20028;-69
2024/02/26 08:20:05;;;;;;;105.28;99.35;;;9.70;99.90;;;;;;5072435;28;20040;-68
2024/02/26 08:22:33;;;;;;;78.53;73.45;;;9.80;99.90;;;;;;5067050;28;20028;-68
2024/02/26 08:24:59;;;;;;;125.35;118.47;;;9.90;99.90;;;;;;5052964;28;20499;-70
2024/02/26 08:27:25;;;;;;;150.60;142.55;;;10.00;99.90;;;;;;5066053;28;20037;-68
2024/02/26 08:29:51;;;;;;;142.05;134.48;;;10.10;99.90;;;;;;5053610;28;20660;-68
2024/02/26 08:32:18;;;;;;;111.13;104.30;;;10.00;99.90;;;;;;5070927;28;20033;-67
2024/02/26 08:34:44;;;;;;;111.60;105.35;;;10.00;99.90;;;;;;5073658;28;20544;-68
2024/02/26 08:37:10;;;;;;;120.25;112.97;;;10.00;99.90;;;;;;5080872;28;20043;-70
2024/02/26 08:39:36;;;;;;;74.25;70.18;;;10.00;99.90;;;;;;5077669;28;20411;-72
2024/02/26 08:42:02;;;;;;;133.45;126.07;;;9.90;99.90;;;;;;5073407;28;20036;-71
2024/02/26 08:44:28;;;;;;;171.18;161.15;;;9.70;99.90;;;;;;5071896;28;20410;-71
2024/02/26 08:46:54;;;;;;;123.95;117.10;;;9.60;99.90;;;;;;5072764;28;20032;-72
2024/02/26 08:49:23;;;;;;;133.98;126.15;;;9.60;99.90;;;;;;5073673;28;20458;-72
2024/02/26 08:51:49;;;;;;;115.32;108.55;;;9.50;99.90;;;;;;5070992;28;20059;-71
2024/02/26 08:54:15;;;;;;;174.02;164.27;;;9.50;99.90;;;;;;5073184;28;20394;-71
2024/02/26 08:56:41;;;;;;;191.02;179.90;;;9.50;99.90;;;;;;5070998;28;20040;-71
2024/02/26 08:59:07;;;;;;;84.80;80.00;;;9.50;99.90;;;;;;5073547;28;20498;-71
2024/02/26 09:01:33;;;;;;;122.43;115.85;;;9.50;99.90;;;;;;5072598;28;20042;-71
2024/02/26 09:03:59;;;;;;;116.47;109.70;;;9.50;99.90;;;;;;5073389;28;20028;-71
2024/02/26 09:06:26;;;;;;;139.85;131.98;;;9.50;99.90;;;;;;5072800;28;20083;-71
2024/02/26 09:08:52;;;;;;;89.90;85.00;;;9.50;99.90;;;;;;5070503;28;20040;-71
2024/02/26 09:11:18;;;;;;;114.07;107.80;;;9.60;99.90;;;;;;5068518;28;20041;-71
2024/02/26 09:13:44;;;;;;;114.57;107.78;;;9.60;99.90;;;;;;5059606;28;20037;-71
2024/02/26 09:16:11;;;;;;;140.50;132.27;;;9.60;99.90;;;;;;5060104;28;20398;-72
2024/02/26 09:18:37;;;;;;;106.32;99.95;;;9.70;99.90;;;;;;5068033;28;20028;-71
2024/02/26 09:21:07;;;;;;;93.60;88.25;;;9.60;99.90;;;;;;5059644;28;20039;-71
2024/02/26 09:23:34;;;;;;;76.32;72.00;;;9.60;99.90;;;;;;5066986;28;20039;-72
2024/02/26 09:26:01;;;;;;;138.77;130.38;;;9.50;99.90;;;;;;5071040;28;20039;-71
2024/02/26 09:28:27;;;;;;;102.68;96.53;;;9.60;99.90;;;;;;5072072;28;20037;-72
2024/02/26 09:30:54;;;;;;;125.68;118.85;;;9.60;99.90;;;;;;5071902;28;20044;-71
2024/02/26 09:33:20;;;;;;;75.70;71.25;;;9.60;99.90;;;;;;5072425;28;20040;-69
2024/02/26 09:35:46;;;;;;;115.82;108.97;;;9.80;99.90;;;;;;5072572;28;20053;-68
2024/02/26 09:38:12;;;;;;;83.68;79.00;;;9.80;99.90;;;;;;5072040;28;20035;-70
2024/02/26 09:40:40;;;;;;;131.40;123.93;;;9.90;99.90;;;;;;5076229;28;20055;-69
2024/02/26 09:43:07;;;;;;;154.07;145.43;;;10.00;99.90;;;;;;5089462;28;20036;-70
2024/02/26 09:45:33;;;;;;;139.88;132.25;;;10.10;99.90;;;;;;5081069;28;20039;-71
2024/02/26 09:47:59;;;;;;;100.10;94.38;;;10.10;99.90;;;;;;5089277;28;20044;-71
2024/02/26 09:50:25;;;;;;;104.53;98.50;;;10.00;99.90;;;;;;5069977;28;20039;-67
2024/02/26 09:52:53;;;;;;;104.07;98.07;;;10.00;99.90;;;;;;5072166;28;20028;-70
2024/02/26 09:55:19;;;;;;;100.50;95.22;;;10.00;99.90;;;;;;5068767;28;20062;-70
2024/02/26 09:57:46;;;;;;;99.03;93.72;;;10.00;99.90;;;;;;5069025;28;20049;-71
2024/02/26 10:00:19;;;;;;;124.00;117.40;;;10.10;99.90;;;;;;5056229;28;20028;-72
2024/02/26 10:02:48;;;;;;;127.22;120.20;;;10.20;99.90;;;;;;5053152;28;20044;-71
2024/02/26 10:05:20;;;;;;;137.02;129.23;;;10.20;99.90;;;;;;5069230;28;20021;-72
2024/02/26 10:07:46;;;;;;;110.05;103.85;;;10.30;99.90;;;;;;5070851;28;20024;-71
2024/02/26 10:10:14;;;;;;;73.18;69.10;;;10.30;99.90;;;;;;5071400;28;20021;-80
2024/02/26 10:12:40;;;;;;;125.53;118.30;;;10.20;99.90;;;;;;5058264;28;20048;-69
2024/02/26 10:15:06;;;;;;;154.32;145.80;;;10.30;99.90;;;;;;5063587;28;20108;-68
2024/02/26 10:17:32;;;;;;;94.15;88.93;;;10.20;99.90;;;;;;5060698;28;20033;-69
2024/02/26 10:20:17;;;;;;;111.03;105.03;;;10.30;99.90;;;;;;5052118;28;20021;-70
2024/02/26 10:22:44;;;;;;;125.18;118.13;;;10.20;99.90;;;;;;5070642;28;20035;-69
2024/02/26 10:25:10;;;;;;;115.30;108.80;;;10.20;99.90;;;;;;5070626;28;20405;-70
2024/02/26 10:27:36;;;;;;;137.43;129.63;;;10.00;99.90;;;;;;5069531;28;20079;-68
2024/02/26 10:30:04;;;;;;;101.60;95.82;;;10.10;99.90;;;;;;5056019;28;20041;-69
2024/02/26 10:32:31;;;;;;;205.52;193.65;;;10.10;99.90;;;;;;5055213;28;20037;-69
2024/02/26 10:34:57;;;;;;;69.13;64.68;;;10.20;99.90;;;;;;5069633;28;20036;-69
2024/02/26 10:37:25;;;;;;;125.15;117.72;;;10.30;99.90;;;;;;5063242;28;20942;-70
2024/02/26 10:39:51;;;;;;;71.38;66.43;;;10.40;99.90;;;;;;5066367;28;20033;-70
2024/02/26 10:42:19;;;;;;;123.13;115.90;;;10.70;99.90;;;;;;5083693;28;20040;-70
2024/02/26 10:44:45;;;;;;;85.80;81.10;;;10.90;99.90;;;;;;5091525;28;20372;-69
2024/02/26 10:47:11;;;;;;;146.30;138.57;;;10.90;99.90;;;;;;5078931;28;20490;-69
2024/02/26 10:49:37;;;;;;;91.47;86.05;;;10.90;99.90;;;;;;5080533;28;20040;-72
2024/02/26 10:52:04;;;;;;;158.18;149.38;;;10.90;99.90;;;;;;5083607;28;20517;-69
2024/02/26 10:54:30;;;;;;;177.50;167.48;;;10.80;99.90;;;;;;5073221;28;20378;-69
2024/02/26 10:56:57;;;;;;;177.85;167.88;;;10.70;99.90;;;;;;5069533;28;20402;-72
2024/02/26 10:59:23;;;;;;;114.10;108.20;;;10.50;99.90;;;;;;5075393;28;20044;-71
2024/02/26 11:01:49;;;;;;;126.38;119.47;;;10.30;99.90;;;;;;5080453;28;20403;-69
2024/02/26 11:04:16;;;;;;;109.97;104.07;;;10.30;99.90;;;;;;5083822;28;20030;-69
2024/02/26 11:06:44;;;;;;;125.28;118.55;;;10.20;99.90;;;;;;5078639;28;20035;-69
2024/02/26 11:09:13;;;;;;;94.75;89.95;;;10.00;99.90;;;;;;5070646;28;20028;-69
2024/02/26 11:11:40;;;;;;;77.28;73.43;;;9.90;99.90;;;;;;5082936;28;20048;-69
2024/02/26 11:14:06;;;;;;;113.25;107.32;;;9.90;99.90;;;;;;5083188;28;20040;-69
2024/02/26 11:16:32;;;;;;;120.47;114.22;;;9.90;99.90;;;;;;5070590;28;20052;-69
2024/02/26 11:18:58;;;;;;;139.30;132.10;;;9.90;99.90;;;;;;5053600;28;20028;-69
2024/02/26 11:21:38;;;;;;;112.60;106.63;;;9.80;99.90;;;;;;5060070;28;20041;-69
2024/02/26 11:24:06;;;;;;;79.38;75.43;;;9.80;99.90;;;;;;5072406;28;20037;-70
2024/02/26 11:26:38;;;;;;;129.55;122.50;;;9.70;99.90;;;;;;5076618;28;20414;-70
2024/02/26 11:29:04;;;;;;;121.47;115.13;;;9.70;99.90;;;;;;5069723;28;20032;-69
2024/02/26 11:31:30;;;;;;;120.63;114.40;;;9.70;99.90;;;;;;5069096;28;20470;-72
2024/02/26 11:33:56;;;;;;;76.93;72.70;;;9.60;99.90;;;;;;5074737;28;20040;-69
2024/02/26 11:36:23;;;;;;;86.10;81.32;;;9.60;99.90;;;;;;5070626;28;20041;-73
2024/02/26 11:38:51;;;;;;;134.63;127.70;;;9.50;99.90;;;;;;5069570;28;20024;-73
2024/02/26 11:41:18;;;;;;;73.60;69.75;;;9.40;99.90;;;;;;5072834;28;20028;-72
2024/02/26 11:44:00;;;;;;;128.52;121.63;;;9.40;99.90;;;;;;5076761;28;20052;-74
2024/02/26 11:46:27;;;;;;;107.68;102.07;;;9.30;99.90;;;;;;5062953;28;20036;-71
2024/02/26 11:49:02;;;;;;;60.33;56.85;;;9.40;99.90;;;;;;5060093;28;20029;-70
2024/02/26 11:51:34;;;;;;;64.28;60.97;;;9.50;99.90;;;;;;5064585;28;20024;-70
2024/02/26 11:54:00;;;;;;;123.63;117.32;;;9.50;99.90;;;;;;5074710;28;20494;-70
2024/02/26 11:56:26;;;;;;;100.15;94.78;;;9.50;99.90;;;;;;5065948;28;20059;-73
2024/02/26 11:58:59;;;;;;;101.90;96.68;;;9.60;99.90;;;;;;5094077;28;20478;-70
2024/02/26 12:01:48;;;;;;;128.57;121.53;;;9.60;99.90;;;;;;5091279;28;20036;-70
2024/02/26 12:04:26;;;;;;;128.23;121.55;;;9.60;99.90;;;;;;5073874;28;20048;-73
2024/02/26 12:07:03;;;;;;;166.23;157.10;;;9.70;99.90;;;;;;5072918;28;20048;-75
2024/02/26 12:09:36;;;;;;;167.65;158.52;;;9.70;99.90;;;;;;5072212;28;20038;-73
2024/02/26 12:12:03;;;;;;;142.23;134.93;;;9.70;99.90;;;;;;5072083;28;20060;-69
2024/02/26 12:14:31;;;;;;;115.07;109.13;;;9.60;99.90;;;;;;5074442;28;20032;-70
2024/02/26 12:16:58;;;;;;;152.10;144.02;;;9.60;99.90;;;;;;5070965;28;20061;-70
2024/02/26 12:19:24;;;;;;;144.60;136.65;;;9.60;99.90;;;;;;5072014;28;20036;-71
2024/02/26 12:21:56;;;;;;;152.45;144.30;;;9.70;99.90;;;;;;5071938;28;20063;-72